Time;durP1;ratioP1;P1;durP2;ratioP2;P2;SDS_P1;SDS_P2;PMS_P1;PMS_P2;Temp;Humidity;BMP_temperature;BMP_pressure;BME280_temperature;BME280_humidity;BME280_pressure;Samples;Min_cycle;Max_cycle;Signal;HPM_P1;HPM_P2
2022/10/19 00:01:55;;;;;;;12.40;11.60;;;16.90;52.20;;;;;;5041702;28;20171;-59
2022/10/19 00:04:21;;;;;;;13.37;12.40;;;16.70;53.30;;;;;;5049318;28;20440;-59
2022/10/19 00:06:46;;;;;;;12.90;11.97;;;16.50;54.20;;;;;;5043549;28;20207;-57
2022/10/19 00:09:15;;;;;;;11.70;11.10;;;16.40;55.10;;;;;;5051407;28;20256;-58
2022/10/19 00:11:43;;;;;;;12.30;11.60;;;16.50;55.30;;;;;;5063020;28;20184;-59
2022/10/19 00:14:19;;;;;;;12.30;11.10;;;16.60;54.80;;;;;;5043808;28;20433;-59
2022/10/19 00:16:46;;;;;;;12.30;11.40;;;16.70;54.30;;;;;;5051170;28;20925;-59
2022/10/19 00:19:15;;;;;;;12.10;11.30;;;16.80;53.90;;;;;;5049293;28;20424;-59
2022/10/19 00:21:41;;;;;;;13.07;12.00;;;16.80;53.50;;;;;;5053487;28;20763;-59
2022/10/19 00:24:07;;;;;;;12.60;11.80;;;16.90;53.30;;;;;;5069289;28;20413;-59
2022/10/19 00:26:33;;;;;;;12.93;12.10;;;16.90;52.70;;;;;;5048788;28;20222;-59
2022/10/19 00:28:59;;;;;;;12.13;11.43;;;17.00;52.60;;;;;;5051097;28;20406;-58
2022/10/19 00:31:25;;;;;;;12.13;11.17;;;17.00;52.10;;;;;;5051325;28;20205;-58
2022/10/19 00:33:51;;;;;;;12.30;11.40;;;17.00;52.10;;;;;;5052862;28;20837;-57
2022/10/19 00:36:23;;;;;;;12.27;11.57;;;17.00;52.10;;;;;;5052369;28;20491;-58
2022/10/19 00:38:49;;;;;;;13.03;12.13;;;17.00;51.80;;;;;;5050929;28;20508;-58
2022/10/19 00:41:16;;;;;;;11.40;10.70;;;17.00;51.50;;;;;;5051015;28;20615;-58
2022/10/19 00:43:54;;;;;;;13.33;12.37;;;16.90;51.30;;;;;;5050899;28;20412;-57
2022/10/19 00:46:20;;;;;;;13.27;12.37;;;16.90;51.20;;;;;;5049975;28;20533;-58
2022/10/19 00:48:46;;;;;;;11.90;11.17;;;17.00;51.20;;;;;;5049558;28;20504;-57
2022/10/19 00:51:12;;;;;;;13.60;12.80;;;17.00;51.40;;;;;;5050018;28;20435;-58
2022/10/19 00:53:37;;;;;;;13.80;13.00;;;17.00;51.50;;;;;;5051998;28;20651;-58
2022/10/19 00:56:08;;;;;;;13.73;12.93;;;17.00;52.00;;;;;;5051423;28;20490;-58
2022/10/19 00:58:34;;;;;;;13.60;12.80;;;16.90;51.10;;;;;;5052877;28;20219;-58
2022/10/19 01:01:03;;;;;;;13.43;12.70;;;16.80;51.10;;;;;;5049591;28;20904;-58
2022/10/19 01:03:29;;;;;;;13.73;12.73;;;16.80;51.50;;;;;;5049047;28;20178;-58
2022/10/19 01:05:55;;;;;;;13.70;12.80;;;16.80;51.40;;;;;;5050163;28;20813;-58
2022/10/19 01:08:22;;;;;;;13.80;12.90;;;16.90;51.30;;;;;;5049947;28;20211;-60
2022/10/19 01:11:33;;;;;;;12.87;12.13;;;16.90;51.00;;;;;;5048417;28;20416;-60
2022/10/19 01:14:08;;;;;;;12.80;12.07;;;16.90;50.90;;;;;;5045995;28;20426;-60
2022/10/19 01:16:51;;;;;;;14.43;13.33;;;16.90;50.40;;;;;;5050012;28;20424;-60
2022/10/19 01:19:27;;;;;;;13.57;12.80;;;16.90;51.20;;;;;;5047874;28;20560;-59
2022/10/19 01:22:10;;;;;;;15.10;14.00;;;16.80;50.80;;;;;;5048456;28;20417;-59
2022/10/19 01:25:11;;;;;;;13.80;13.00;;;16.60;51.60;;;;;;5048534;28;20417;-59
2022/10/19 01:28:01;;;;;;;13.93;13.13;;;16.50;52.70;;;;;;5051180;28;20458;-59
2022/10/19 01:30:53;;;;;;;13.60;12.90;;;16.40;53.60;;;;;;5050744;28;20986;-59
2022/10/19 01:33:24;;;;;;;13.37;12.47;;;16.50;53.40;;;;;;5038574;28;20410;-59
2022/10/19 01:36:38;;;;;;;13.17;12.30;;;16.60;53.20;;;;;;5049615;28;20402;-59
2022/10/19 01:39:09;;;;;;;13.40;12.50;;;16.70;52.90;;;;;;5051144;28;20411;-59
2022/10/19 01:41:38;;;;;;;15.10;13.83;;;16.70;52.60;;;;;;5046653;28;20406;-59
2022/10/19 01:44:41;;;;;;;14.37;13.43;;;16.80;52.50;;;;;;5049046;28;20416;-59
2022/10/19 01:47:13;;;;;;;14.77;13.57;;;16.70;52.60;;;;;;5047278;28;20455;-59
2022/10/19 01:49:39;;;;;;;14.50;13.50;;;16.50;53.60;;;;;;5049108;28;20463;-60
2022/10/19 01:52:08;;;;;;;16.07;14.63;;;16.50;54.20;;;;;;5049505;28;20413;-59
2022/10/19 01:54:38;;;;;;;14.70;13.43;;;16.50;54.40;;;;;;5046640;28;20171;-59
2022/10/19 01:57:07;;;;;;;15.40;14.20;;;16.40;54.60;;;;;;5046540;28;20416;-59
2022/10/19 01:59:35;;;;;;;15.30;14.30;;;16.50;55.20;;;;;;5046728;28;20937;-59
2022/10/19 02:02:03;;;;;;;14.27;13.37;;;16.60;55.00;;;;;;5046736;28;20417;-59
2022/10/19 02:04:29;;;;;;;14.40;13.20;;;16.60;54.50;;;;;;5046840;28;20457;-59
2022/10/19 02:06:56;;;;;;;16.30;15.13;;;16.60;54.40;;;;;;5065141;28;20809;-59
2022/10/19 02:09:22;;;;;;;16.13;14.97;;;16.70;54.70;;;;;;5045599;28;21261;-59
2022/10/19 02:11:55;;;;;;;17.17;15.77;;;16.70;54.60;;;;;;5045649;28;20497;-59
2022/10/19 02:14:25;;;;;;;18.83;17.23;;;16.70;54.70;;;;;;5045248;28;20616;-59
2022/10/19 02:16:56;;;;;;;18.00;16.30;;;16.80;54.70;;;;;;5047198;28;20948;-59
2022/10/19 02:19:22;;;;;;;16.77;15.57;;;16.80;54.60;;;;;;5048401;28;20416;-59
2022/10/19 02:21:48;;;;;;;17.10;15.47;;;16.80;54.50;;;;;;5065382;28;20981;-59
2022/10/19 02:24:13;;;;;;;17.40;15.87;;;16.70;55.00;;;;;;5045667;28;20209;-59
2022/10/19 02:26:40;;;;;;;18.87;16.80;;;16.60;56.50;;;;;;5047059;28;20496;-59
2022/10/19 02:31:44;;;;;;;20.53;17.60;;;16.50;57.10;;;;;;5117878;27;20553;-58
2022/10/19 02:34:11;;;;;;;20.43;18.30;;;16.50;58.00;;;;;;5098315;28;20455;-59
2022/10/19 02:36:36;;;;;;;30.27;18.73;;;16.40;58.70;;;;;;5100147;28;20612;-58
2022/10/19 02:39:03;;;;;;;19.27;17.23;;;16.30;59.00;;;;;;5100097;28;20408;-59
2022/10/19 02:41:35;;;;;;;24.63;16.37;;;16.30;59.70;;;;;;5098536;28;20185;-59
2022/10/19 02:44:05;;;;;;;19.90;17.47;;;16.20;60.50;;;;;;5099279;28;20472;-59
2022/10/19 02:46:40;;;;;;;20.07;18.23;;;16.10;61.00;;;;;;5098185;28;20420;-59
2022/10/19 02:49:08;;;;;;;17.03;15.37;;;16.10;62.10;;;;;;5098936;28;20411;-59
2022/10/19 02:51:57;;;;;;;16.50;14.90;;;16.00;63.40;;;;;;5097515;28;21271;-59
2022/10/19 02:54:23;;;;;;;17.50;15.67;;;15.90;63.40;;;;;;5100715;28;20500;-59
2022/10/19 02:56:49;;;;;;;21.63;17.00;;;15.80;63.70;;;;;;5097476;28;20878;-59
2022/10/19 02:59:15;;;;;;;16.83;15.13;;;15.70;64.70;;;;;;5097174;28;20775;-59
2022/10/19 03:01:41;;;;;;;20.73;14.90;;;15.70;66.10;;;;;;5097762;28;20668;-59
2022/10/19 03:04:06;;;;;;;24.57;17.00;;;15.70;66.50;;;;;;5099114;28;20416;-58
2022/10/19 03:06:32;;;;;;;24.23;16.50;;;15.80;66.60;;;;;;5098471;28;20178;-59
2022/10/19 03:08:58;;;;;;;28.50;17.77;;;15.80;66.60;;;;;;5099898;28;20186;-59
2022/10/19 03:11:23;;;;;;;26.40;17.87;;;15.80;66.60;;;;;;5098631;28;20292;-59
2022/10/19 03:13:49;;;;;;;24.90;18.03;;;15.90;66.70;;;;;;5100526;28;20631;-59
2022/10/19 03:16:14;;;;;;;25.80;16.43;;;16.00;66.40;;;;;;5100679;28;20173;-59
2022/10/19 03:18:40;;;;;;;22.77;16.97;;;16.10;65.70;;;;;;5100217;28;20175;-59
2022/10/19 03:21:12;;;;;;;23.27;15.93;;;16.20;65.10;;;;;;5100181;28;20547;-59
2022/10/19 03:23:38;;;;;;;22.60;17.03;;;16.30;64.20;;;;;;5100893;28;20185;-59
2022/10/19 03:26:06;;;;;;;24.43;16.47;;;16.50;63.50;;;;;;5101255;28;20423;-59
2022/10/19 03:28:32;;;;;;;23.20;18.30;;;16.60;62.50;;;;;;5100726;28;20412;-58
2022/10/19 03:30:57;;;;;;;29.40;21.20;;;16.60;61.00;;;;;;5103301;28;20879;-59
2022/10/19 03:33:23;;;;;;;25.70;19.33;;;16.60;60.80;;;;;;5102995;28;20247;-59
2022/10/19 03:35:49;;;;;;;21.03;17.33;;;16.50;61.10;;;;;;5101667;28;20198;-59
2022/10/19 03:38:15;;;;;;;25.07;17.10;;;16.40;61.70;;;;;;5101633;28;20408;-59
2022/10/19 03:40:41;;;;;;;24.53;18.37;;;16.40;62.20;;;;;;5103502;28;20502;-59
2022/10/19 03:43:06;;;;;;;23.53;18.07;;;16.40;62.10;;;;;;5090904;28;20174;-58
2022/10/19 03:45:32;;;;;;;20.40;16.87;;;16.40;62.80;;;;;;5089446;28;20593;-59
2022/10/19 03:47:58;;;;;;;24.30;17.93;;;16.40;62.30;;;;;;5090319;28;20179;-58
2022/10/19 03:50:23;;;;;;;20.90;16.67;;;16.30;62.20;;;;;;5091168;28;20301;-59
2022/10/19 03:52:49;;;;;;;18.73;16.77;;;16.40;62.60;;;;;;5089108;28;20174;-57
2022/10/19 03:55:15;;;;;;;23.07;16.70;;;16.40;62.50;;;;;;5090601;28;20778;-57
2022/10/19 03:57:41;;;;;;;20.33;17.50;;;16.50;62.70;;;;;;5089717;28;20262;-57
2022/10/19 04:00:09;;;;;;;18.97;16.97;;;16.50;61.50;;;;;;5085806;28;20706;-57
2022/10/19 04:02:35;;;;;;;18.93;17.00;;;16.60;60.90;;;;;;5090889;28;20924;-57
2022/10/19 04:05:01;;;;;;;19.57;16.80;;;16.50;60.20;;;;;;5086595;28;20441;-57
2022/10/19 04:07:26;;;;;;;18.40;16.70;;;16.50;60.60;;;;;;5089402;28;20171;-58
2022/10/19 04:09:52;;;;;;;18.43;16.50;;;16.40;61.40;;;;;;5088384;28;20440;-58
2022/10/19 04:12:17;;;;;;;18.47;16.27;;;16.50;61.00;;;;;;5091729;28;20206;-58
2022/10/19 04:14:43;;;;;;;17.23;15.57;;;16.50;60.80;;;;;;5091672;28;20190;-59
2022/10/19 04:17:10;;;;;;;18.30;16.40;;;16.50;60.10;;;;;;5090170;28;20171;-59
2022/10/19 04:19:35;;;;;;;18.67;16.87;;;16.60;59.90;;;;;;5091837;28;20599;-59
2022/10/19 04:22:01;;;;;;;17.07;15.30;;;16.60;59.40;;;;;;5091134;28;20524;-59
2022/10/19 04:24:27;;;;;;;18.20;16.50;;;16.70;59.60;;;;;;5090965;28;20690;-59
2022/10/19 04:26:54;;;;;;;18.27;16.57;;;16.80;59.10;;;;;;5090200;28;20566;-59
2022/10/19 04:29:22;;;;;;;17.23;15.23;;;16.90;58.50;;;;;;5089363;28;20492;-59
2022/10/19 04:31:49;;;;;;;17.17;15.47;;;16.90;57.80;;;;;;5091506;28;20909;-59
2022/10/19 04:34:16;;;;;;;18.93;17.13;;;17.00;57.60;;;;;;5088314;28;20562;-59
2022/10/19 04:36:41;;;;;;;19.20;17.20;;;17.00;57.10;;;;;;5079805;28;20421;-59
2022/10/19 04:39:07;;;;;;;18.97;17.17;;;17.00;56.70;;;;;;5083543;28;20494;-59
2022/10/19 04:41:34;;;;;;;18.33;16.40;;;17.00;56.60;;;;;;5088012;28;20179;-59
2022/10/19 04:44:01;;;;;;;24.77;18.07;;;17.00;57.10;;;;;;5088809;28;20428;-59
2022/10/19 04:46:28;;;;;;;18.43;16.70;;;17.10;56.90;;;;;;5089608;28;20881;-59
2022/10/19 04:48:55;;;;;;;19.10;17.07;;;17.00;56.80;;;;;;5087316;28;20982;-59
2022/10/19 04:51:22;;;;;;;19.07;17.47;;;17.10;56.50;;;;;;5087408;28;20505;-60
2022/10/19 04:53:48;;;;;;;23.20;17.87;;;17.10;56.00;;;;;;5090189;28;20419;-59
2022/10/19 04:56:27;;;;;;;18.77;16.87;;;17.00;56.40;;;;;;5087470;28;20770;-59
2022/10/19 04:58:56;;;;;;;17.07;15.27;;;17.10;56.10;;;;;;5089086;28;20822;-62
2022/10/19 05:01:22;;;;;;;20.47;17.30;;;17.00;56.00;;;;;;5089486;28;20888;-60
2022/10/19 05:03:56;;;;;;;20.13;17.03;;;17.00;56.40;;;;;;5090279;28;20409;-60
2022/10/19 05:06:22;;;;;;;18.37;16.50;;;16.90;56.50;;;;;;5089621;28;20419;-60
2022/10/19 05:08:51;;;;;;;21.33;19.07;;;16.80;57.10;;;;;;5083687;28;20425;-60
2022/10/19 05:11:18;;;;;;;24.30;17.83;;;16.80;57.10;;;;;;5086680;28;20213;-60
2022/10/19 05:13:44;;;;;;;20.10;17.37;;;16.70;57.30;;;;;;5088203;28;20824;-60
2022/10/19 05:16:16;;;;;;;19.73;17.80;;;16.70;57.70;;;;;;5087391;28;20405;-60
2022/10/19 05:18:46;;;;;;;19.60;17.70;;;16.60;57.20;;;;;;5086051;28;21455;-60
2022/10/19 05:21:13;;;;;;;19.80;17.80;;;16.70;57.80;;;;;;5086706;28;20924;-59
2022/10/19 05:23:40;;;;;;;19.33;17.50;;;16.70;57.30;;;;;;5083508;28;20432;-60
2022/10/19 05:26:08;;;;;;;19.43;17.70;;;16.80;56.90;;;;;;5083326;28;20760;-60
2022/10/19 05:28:35;;;;;;;19.23;17.47;;;16.80;56.30;;;;;;5080223;28;20448;-60
2022/10/19 05:31:13;;;;;;;19.30;17.47;;;16.90;55.70;;;;;;5084058;28;20571;-60
2022/10/19 05:33:40;;;;;;;22.23;17.50;;;16.90;55.40;;;;;;5076509;28;21700;-60
2022/10/19 05:36:13;;;;;;;19.60;17.90;;;16.90;55.30;;;;;;5087060;28;20465;-60
2022/10/19 05:38:38;;;;;;;21.57;19.43;;;16.80;54.60;;;;;;5085583;28;20408;-60
2022/10/19 05:41:04;;;;;;;20.10;18.00;;;16.80;55.50;;;;;;5086671;28;20428;-62
2022/10/19 05:43:30;;;;;;;18.67;17.23;;;16.80;55.10;;;;;;5090200;28;20181;-59
2022/10/19 05:45:56;;;;;;;20.57;18.50;;;16.80;55.10;;;;;;5085858;28;20417;-59
2022/10/19 05:48:22;;;;;;;20.50;18.50;;;16.80;54.60;;;;;;5087451;28;20325;-59
2022/10/19 05:50:53;;;;;;;20.60;18.90;;;16.80;55.10;;;;;;5085699;28;20841;-59
2022/10/19 05:53:18;;;;;;;18.53;16.93;;;16.80;55.10;;;;;;5086020;28;20943;-58
2022/10/19 05:55:44;;;;;;;19.57;17.70;;;16.70;54.50;;;;;;5087678;28;20448;-58
2022/10/19 05:58:10;;;;;;;20.00;18.40;;;16.70;55.30;;;;;;5088010;28;20582;-58
2022/10/19 06:00:35;;;;;;;19.70;17.90;;;16.50;55.70;;;;;;5082878;28;20544;-58
2022/10/19 06:03:01;;;;;;;18.47;16.83;;;16.50;56.10;;;;;;5083924;28;20602;-58
2022/10/19 06:05:27;;;;;;;19.90;18.00;;;16.40;56.50;;;;;;5084926;28;20209;-58
2022/10/19 06:07:52;;;;;;;20.83;19.00;;;16.40;57.00;;;;;;5085865;28;20206;-57
2022/10/19 06:10:19;;;;;;;19.70;17.90;;;16.30;57.00;;;;;;5084942;28;20289;-57
2022/10/19 06:12:45;;;;;;;19.47;17.87;;;16.40;57.10;;;;;;5078132;28;20186;-57
2022/10/19 06:15:11;;;;;;;18.87;16.97;;;16.50;56.20;;;;;;5084428;28;20423;-57
2022/10/19 06:17:37;;;;;;;18.37;16.87;;;16.40;56.40;;;;;;5085340;28;20646;-57
2022/10/19 06:20:03;;;;;;;19.73;18.13;;;16.40;57.70;;;;;;5075563;28;20261;-57
2022/10/19 06:22:29;;;;;;;19.57;17.77;;;16.30;56.90;;;;;;5085340;28;20175;-56
2022/10/19 06:24:55;;;;;;;17.80;16.23;;;16.40;57.70;;;;;;5084648;28;20423;-57
2022/10/19 06:27:21;;;;;;;18.73;17.23;;;16.30;57.00;;;;;;5083768;28;20539;-57
2022/10/19 06:29:47;;;;;;;17.63;16.10;;;16.30;56.90;;;;;;5086119;28;20483;-57
2022/10/19 06:32:13;;;;;;;18.00;16.60;;;16.30;57.00;;;;;;5081898;28;20255;-57
2022/10/19 06:34:38;;;;;;;18.80;17.17;;;16.30;57.60;;;;;;5079712;28;20881;-57
2022/10/19 06:37:04;;;;;;;18.83;17.40;;;16.30;56.90;;;;;;5082109;28;20537;-57
2022/10/19 06:39:29;;;;;;;18.07;16.30;;;16.30;57.00;;;;;;5081847;28;20627;-57
2022/10/19 06:41:55;;;;;;;17.80;16.40;;;16.30;56.90;;;;;;5081495;28;20179;-57
2022/10/19 06:44:21;;;;;;;17.87;16.43;;;16.40;57.00;;;;;;5076601;28;20676;-57
2022/10/19 06:46:47;;;;;;;18.83;17.23;;;16.50;57.20;;;;;;5074587;28;20520;-57
2022/10/19 06:49:13;;;;;;;18.33;16.50;;;16.50;56.00;;;;;;5089644;28;20182;-57
2022/10/19 06:51:39;;;;;;;17.90;16.60;;;16.40;56.20;;;;;;5086786;28;20979;-58
2022/10/19 06:54:05;;;;;;;18.20;16.70;;;16.40;57.00;;;;;;5088162;28;20424;-58
2022/10/19 06:56:31;;;;;;;18.87;17.40;;;16.50;57.10;;;;;;5090460;28;20465;-57
2022/10/19 06:58:57;;;;;;;18.40;16.83;;;16.50;56.50;;;;;;5088627;28;20961;-57
2022/10/19 07:01:26;;;;;;;19.00;17.50;;;16.60;56.40;;;;;;5088804;28;20425;-59
2022/10/19 07:03:53;;;;;;;17.70;16.07;;;16.60;55.80;;;;;;5090545;28;20416;-58
2022/10/19 07:06:19;;;;;;;18.20;16.67;;;16.60;54.80;;;;;;5090264;28;20479;-59
2022/10/19 07:08:44;;;;;;;18.10;16.60;;;16.60;55.40;;;;;;5090034;28;20861;-59
2022/10/19 07:11:14;;;;;;;18.50;16.80;;;16.70;55.20;;;;;;5083775;28;20551;-57
2022/10/19 07:13:40;;;;;;;17.60;16.17;;;16.70;54.80;;;;;;5090506;28;20171;-57
2022/10/19 07:16:12;;;;;;;18.20;16.80;;;16.60;54.30;;;;;;5087524;28;20488;-58
2022/10/19 07:18:39;;;;;;;18.70;17.23;;;16.50;54.80;;;;;;5092740;28;20228;-57
2022/10/19 07:21:07;;;;;;;19.83;18.33;;;16.50;55.00;;;;;;5092166;28;20429;-58
2022/10/19 07:23:35;;;;;;;17.43;16.20;;;16.50;55.10;;;;;;5090708;28;20472;-58
2022/10/19 07:26:11;;;;;;;18.83;17.43;;;16.60;55.50;;;;;;5093625;28;20815;-58
2022/10/19 07:28:38;;;;;;;19.10;17.30;;;16.60;54.80;;;;;;5093521;28;20904;-58
2022/10/19 07:31:07;;;;;;;19.00;17.50;;;16.70;54.40;;;;;;5092683;28;20874;-59
2022/10/19 07:33:32;;;;;;;19.67;18.13;;;16.70;54.00;;;;;;5093719;28;20428;-58
2022/10/19 07:36:00;;;;;;;20.03;17.30;;;16.80;53.90;;;;;;5087252;28;20819;-60
2022/10/19 07:38:26;;;;;;;19.87;18.17;;;16.80;53.60;;;;;;5085363;28;20179;-59
2022/10/19 07:41:02;;;;;;;19.30;17.90;;;16.80;52.60;;;;;;5092637;28;20423;-58
2022/10/19 07:43:28;;;;;;;18.93;17.33;;;16.70;53.30;;;;;;5092255;28;20313;-58
2022/10/19 07:45:58;;;;;;;19.13;17.60;;;16.80;52.90;;;;;;5093118;28;20424;-58
2022/10/19 07:48:24;;;;;;;23.27;17.63;;;16.70;53.20;;;;;;5085536;28;20182;-57
2022/10/19 07:50:49;;;;;;;19.00;17.37;;;16.70;53.40;;;;;;5092733;28;20983;-58
2022/10/19 07:53:15;;;;;;;16.00;14.97;;;16.70;53.00;;;;;;5093232;28;20171;-57
2022/10/19 07:55:41;;;;;;;15.43;14.43;;;16.80;52.80;;;;;;5093066;28;20193;-58
2022/10/19 07:58:06;;;;;;;17.10;15.93;;;16.70;52.20;;;;;;5094332;28;20177;-57
2022/10/19 08:00:32;;;;;;;16.00;14.87;;;16.70;52.10;;;;;;5092441;28;20260;-57
2022/10/19 08:02:57;;;;;;;15.97;14.80;;;16.70;52.10;;;;;;5092953;28;20579;-59
2022/10/19 08:05:23;;;;;;;15.60;14.40;;;16.70;52.00;;;;;;5092954;28;20182;-59
2022/10/19 08:07:49;;;;;;;15.23;14.23;;;16.70;52.50;;;;;;5093013;28;20576;-58
2022/10/19 08:10:14;;;;;;;16.13;15.07;;;16.70;52.10;;;;;;5092152;28;20289;-57
2022/10/19 08:12:40;;;;;;;15.87;14.43;;;16.70;51.90;;;;;;5092748;28;20171;-58
2022/10/19 08:15:06;;;;;;;15.37;14.20;;;16.70;52.00;;;;;;5092582;28;20223;-57
2022/10/19 08:17:35;;;;;;;14.40;13.50;;;16.70;52.00;;;;;;5092544;28;20183;-57
2022/10/19 08:20:02;;;;;;;14.63;13.53;;;16.70;51.80;;;;;;5091962;28;20822;-58
2022/10/19 08:22:27;;;;;;;14.53;13.63;;;16.60;51.80;;;;;;5092790;28;20441;-57
2022/10/19 08:24:53;;;;;;;15.37;14.17;;;16.70;51.80;;;;;;5075776;28;20957;-58
2022/10/19 08:27:18;;;;;;;15.70;14.50;;;16.70;51.60;;;;;;5092384;28;20265;-58
2022/10/19 08:29:44;;;;;;;15.67;14.20;;;16.70;51.50;;;;;;5092536;28;20239;-58
2022/10/19 08:32:10;;;;;;;14.17;13.17;;;16.70;51.40;;;;;;5091780;28;20174;-57
2022/10/19 08:34:35;;;;;;;14.80;13.67;;;16.60;52.00;;;;;;5092493;28;20176;-58
2022/10/19 08:37:02;;;;;;;15.03;14.03;;;16.60;51.30;;;;;;5092339;28;20175;-58
2022/10/19 08:39:27;;;;;;;14.13;13.23;;;16.60;51.10;;;;;;5092320;28;20232;-57
2022/10/19 08:42:05;;;;;;;15.17;13.83;;;16.60;51.20;;;;;;5091972;28;20995;-57
2022/10/19 08:44:36;;;;;;;14.03;13.13;;;16.70;50.90;;;;;;5092380;28;20767;-57
2022/10/19 08:47:21;;;;;;;13.50;12.67;;;16.70;50.70;;;;;;5091717;28;20436;-59
2022/10/19 08:49:47;;;;;;;14.00;13.00;;;16.70;50.40;;;;;;5080337;28;20425;-59
2022/10/19 08:52:21;;;;;;;12.43;11.57;;;16.80;50.20;;;;;;5089931;28;20425;-59
2022/10/19 08:55:28;;;;;;;13.80;12.90;;;16.80;50.60;;;;;;5091727;28;20448;-59
2022/10/19 08:58:20;;;;;;;14.53;13.43;;;16.70;50.00;;;;;;5053715;28;20421;-59
2022/10/19 09:01:15;;;;;;;12.53;11.80;;;16.80;49.80;;;;;;5085747;28;20485;-59
2022/10/19 09:03:57;;;;;;;13.83;13.10;;;16.80;49.70;;;;;;5091376;28;20420;-59
2022/10/19 09:06:48;;;;;;;13.27;12.13;;;16.80;49.40;;;;;;5091041;28;20420;-59
2022/10/19 09:09:17;;;;;;;13.03;12.13;;;16.80;49.10;;;;;;5091241;28;20429;-59
2022/10/19 09:11:46;;;;;;;12.47;11.70;;;16.80;49.40;;;;;;5090426;28;20463;-59
2022/10/19 09:14:18;;;;;;;13.47;12.77;;;16.80;49.40;;;;;;5091076;28;20448;-59
2022/10/19 09:16:45;;;;;;;13.13;12.33;;;16.80;49.50;;;;;;5091458;28;20428;-58
2022/10/19 09:19:28;;;;;;;14.03;12.87;;;16.80;49.00;;;;;;5091611;28;20909;-57
2022/10/19 09:22:17;;;;;;;12.37;11.57;;;16.80;48.50;;;;;;5090891;28;20428;-57
2022/10/19 09:24:50;;;;;;;12.67;11.97;;;16.70;48.80;;;;;;5091873;28;20440;-58
2022/10/19 09:27:32;;;;;;;12.60;11.80;;;16.70;48.70;;;;;;5091495;28;20428;-58
2022/10/19 09:30:03;;;;;;;13.00;11.80;;;16.80;48.50;;;;;;5090871;28;20515;-58
2022/10/19 09:32:35;;;;;;;13.00;12.10;;;16.80;48.50;;;;;;5091684;28;20409;-59
2022/10/19 09:35:17;;;;;;;14.57;13.37;;;16.80;48.90;;;;;;5091343;28;20417;-60
2022/10/19 09:37:46;;;;;;;12.50;11.80;;;16.80;48.20;;;;;;5091725;28;20503;-59
2022/10/19 09:40:19;;;;;;;11.83;11.20;;;16.80;48.00;;;;;;5090117;28;20668;-59
2022/10/19 09:42:44;;;;;;;14.03;12.90;;;16.70;48.20;;;;;;5091831;28;20504;-60
2022/10/19 09:45:34;;;;;;;13.90;12.97;;;16.70;48.20;;;;;;5091377;28;20554;-59
2022/10/19 09:48:11;;;;;;;13.70;12.70;;;16.60;48.90;;;;;;5091274;28;20247;-59
2022/10/19 09:50:42;;;;;;;12.60;11.70;;;16.50;49.50;;;;;;5090635;28;20464;-59
2022/10/19 09:53:17;;;;;;;11.57;10.87;;;16.50;49.50;;;;;;5083057;28;20929;-60
2022/10/19 09:55:56;;;;;;;13.27;12.40;;;16.50;49.40;;;;;;5085994;28;20492;-59
2022/10/19 09:58:25;;;;;;;12.40;11.70;;;16.50;49.40;;;;;;5077621;28;20408;-59
2022/10/19 10:00:55;;;;;;;11.83;11.20;;;16.50;49.40;;;;;;5091823;28;20448;-59
2022/10/19 10:03:28;;;;;;;12.40;11.70;;;16.50;49.30;;;;;;5091073;28;20570;-59
2022/10/19 10:06:22;;;;;;;12.70;11.87;;;16.60;49.20;;;;;;5091195;28;20419;-59
2022/10/19 10:08:56;;;;;;;12.80;12.00;;;16.60;48.80;;;;;;5089305;28;21108;-59
2022/10/19 10:11:31;;;;;;;13.03;12.17;;;16.70;48.70;;;;;;5090144;28;20813;-59
2022/10/19 10:14:02;;;;;;;11.90;11.30;;;16.70;48.20;;;;;;5090556;28;20420;-58
2022/10/19 10:16:29;;;;;;;11.97;11.30;;;16.80;47.60;;;;;;5090644;28;20456;-58
2022/10/19 10:19:02;;;;;;;12.00;11.40;;;16.80;47.60;;;;;;5090767;28;20421;-58
2022/10/19 10:21:35;;;;;;;12.77;11.87;;;16.80;47.60;;;;;;5090498;28;21149;-57
2022/10/19 10:24:09;;;;;;;12.43;11.73;;;16.90;47.60;;;;;;5090639;28;20829;-58
2022/10/19 10:26:41;;;;;;;11.27;10.47;;;16.90;47.00;;;;;;5090859;28;20420;-59
2022/10/19 10:29:20;;;;;;;12.00;11.00;;;16.90;47.40;;;;;;5090451;28;20897;-61
2022/10/19 10:31:58;;;;;;;12.13;11.33;;;16.90;47.40;;;;;;5089893;28;20476;-58
2022/10/19 10:34:35;;;;;;;12.30;11.70;;;16.90;47.70;;;;;;5090621;28;20420;-58
2022/10/19 10:37:03;;;;;;;11.73;11.03;;;16.90;47.50;;;;;;5090496;28;20416;-59
2022/10/19 10:39:29;;;;;;;11.97;11.27;;;16.90;47.60;;;;;;5090638;28;20440;-59
2022/10/19 10:42:01;;;;;;;11.37;10.77;;;16.90;47.70;;;;;;5089593;28;20425;-59
2022/10/19 10:44:33;;;;;;;11.90;10.87;;;16.90;47.40;;;;;;5090421;28;20729;-59
2022/10/19 10:47:02;;;;;;;10.70;9.90;;;16.90;47.40;;;;;;5088487;28;20429;-57
2022/10/19 10:49:32;;;;;;;11.13;10.53;;;16.80;47.60;;;;;;5088637;28;20431;-57
2022/10/19 10:52:16;;;;;;;10.33;9.83;;;16.80;47.60;;;;;;5089909;28;20510;-57
2022/10/19 10:55:11;;;;;;;10.63;10.03;;;16.90;47.70;;;;;;5094582;28;20825;-57
2022/10/19 10:57:42;;;;;;;11.47;10.83;;;16.90;47.70;;;;;;5071204;28;21111;-57
2022/10/19 11:00:15;;;;;;;11.17;10.33;;;17.00;47.80;;;;;;5089270;28;20533;-58
2022/10/19 11:03:06;;;;;;;10.27;9.50;;;17.00;47.70;;;;;;5094437;28;20511;-58
2022/10/19 11:05:37;;;;;;;10.60;10.10;;;17.10;47.80;;;;;;5083033;28;20427;-59
2022/10/19 11:08:26;;;;;;;11.00;10.40;;;17.10;47.40;;;;;;5094260;28;20412;-58
2022/10/19 11:11:03;;;;;;;10.20;9.70;;;17.20;46.70;;;;;;5093836;28;20963;-58
2022/10/19 11:13:47;;;;;;;10.57;9.97;;;17.20;46.50;;;;;;5093992;28;20458;-58
2022/10/19 11:16:13;;;;;;;10.50;9.90;;;17.30;46.80;;;;;;5094385;28;20785;-58
2022/10/19 11:18:50;;;;;;;11.20;10.60;;;17.30;46.50;;;;;;5094490;28;20417;-58
2022/10/19 11:21:35;;;;;;;10.60;10.07;;;17.30;46.10;;;;;;5093491;28;20193;-58
2022/10/19 11:24:34;;;;;;;10.90;10.30;;;17.30;46.40;;;;;;5094194;28;20474;-57
2022/10/19 11:27:27;;;;;;;10.13;9.63;;;17.30;46.00;;;;;;5094153;28;20476;-57
2022/10/19 11:30:14;;;;;;;10.03;9.47;;;17.30;45.80;;;;;;5093541;28;20435;-57
2022/10/19 11:33:16;;;;;;;10.70;9.90;;;17.30;45.60;;;;;;5094219;28;20753;-57
2022/10/19 11:35:58;;;;;;;10.30;9.80;;;17.40;45.60;;;;;;5093959;28;20970;-57
2022/10/19 11:38:48;;;;;;;11.33;10.63;;;17.40;45.80;;;;;;5094038;28;20461;-57
2022/10/19 11:41:13;;;;;;;11.60;10.67;;;17.40;45.60;;;;;;5087848;28;20421;-57
2022/10/19 11:44:23;;;;;;;11.67;11.17;;;17.40;45.50;;;;;;5093725;28;20423;-57
2022/10/19 11:47:11;;;;;;;11.13;10.63;;;17.40;45.40;;;;;;5106002;28;20209;-57
2022/10/19 11:50:22;;;;;;;12.10;11.50;;;17.50;45.40;;;;;;5093778;28;20432;-58
2022/10/19 11:53:24;;;;;;;11.00;10.40;;;17.50;45.10;;;;;;5073628;28;20434;-58
2022/10/19 11:56:27;;;;;;;12.47;11.77;;;17.50;44.70;;;;;;5079138;28;20416;-58
2022/10/19 11:59:24;;;;;;;10.73;10.23;;;17.60;44.00;;;;;;5077034;28;20464;-58
2022/10/19 12:02:12;;;;;;;11.30;10.77;;;17.50;44.40;;;;;;5090221;28;20421;-58
2022/10/19 12:04:50;;;;;;;10.63;10.00;;;17.60;43.70;;;;;;5073388;28;20792;-58
2022/10/19 12:07:26;;;;;;;10.50;10.00;;;17.60;43.70;;;;;;5073380;28;20425;-58
2022/10/19 12:10:11;;;;;;;12.73;11.70;;;17.60;43.60;;;;;;5072743;28;20409;-58
2022/10/19 12:12:40;;;;;;;10.70;10.00;;;17.60;43.50;;;;;;5093386;28;20417;-58
2022/10/19 12:15:30;;;;;;;11.70;11.00;;;17.70;43.30;;;;;;5093132;28;20432;-58
2022/10/19 12:18:01;;;;;;;12.63;12.03;;;17.70;42.90;;;;;;5093463;28;20795;-58
2022/10/19 12:20:38;;;;;;;13.27;12.50;;;17.70;42.60;;;;;;5091601;28;20421;-57
2022/10/19 12:23:32;;;;;;;13.03;12.33;;;17.80;42.30;;;;;;5092975;28;20424;-57
2022/10/19 12:26:05;;;;;;;12.10;11.40;;;17.80;42.40;;;;;;5091455;28;20779;-58
2022/10/19 12:28:34;;;;;;;12.00;11.40;;;17.80;42.30;;;;;;5093265;28;20420;-58
2022/10/19 12:31:01;;;;;;;12.50;11.70;;;17.80;42.30;;;;;;5090754;28;20456;-58
2022/10/19 12:33:45;;;;;;;11.50;10.83;;;17.80;42.50;;;;;;5093105;28;20424;-58
2022/10/19 12:36:31;;;;;;;12.17;11.53;;;17.80;42.20;;;;;;5092895;28;20413;-58
2022/10/19 12:39:02;;;;;;;11.20;10.60;;;17.80;42.50;;;;;;5092336;28;20420;-58
2022/10/19 12:42:02;;;;;;;10.73;10.13;;;17.90;41.80;;;;;;5090811;28;20456;-58
2022/10/19 12:44:31;;;;;;;11.60;10.90;;;17.90;41.40;;;;;;5092920;28;20420;-58
2022/10/19 12:47:18;;;;;;;11.90;11.20;;;17.90;41.40;;;;;;5092572;28;20508;-58
2022/10/19 12:49:55;;;;;;;13.23;12.53;;;17.90;41.10;;;;;;5092724;28;20512;-58
2022/10/19 12:52:33;;;;;;;13.77;12.67;;;17.80;41.30;;;;;;5092453;28;20415;-58
2022/10/19 12:55:26;;;;;;;13.07;12.27;;;17.80;41.40;;;;;;5084513;28;20900;-58